createdAt,value
2023-01-06T00:01:35.259Z,100.00
2023-01-06T00:04:03.171Z,100.00
2023-01-06T00:06:32.033Z,100.00
2023-01-06T00:09:00.817Z,100.00
2023-01-06T00:11:52.909Z,100.00
2023-01-06T00:14:21.093Z,100.00
2023-01-06T00:16:49.955Z,100.00
2023-01-06T00:19:19.080Z,100.00
2023-01-06T00:21:47.299Z,100.00
2023-01-06T00:24:16.223Z,100.00
2023-01-06T00:26:43.717Z,100.00
2023-01-06T00:29:11.756Z,100.00
2023-01-06T00:31:39.318Z,100.00
2023-01-06T00:34:08.577Z,100.00
2023-01-06T00:36:37.045Z,100.00
2023-01-06T00:39:04.664Z,100.00
2023-01-06T00:41:52.918Z,100.00
2023-01-06T00:44:21.279Z,100.00
2023-01-06T00:46:48.852Z,100.00
2023-01-06T00:49:19.590Z,100.00
2023-01-06T00:51:47.198Z,100.00
2023-01-06T00:54:15.575Z,100.00
2023-01-06T00:56:44.287Z,100.00
2023-01-06T00:59:13.729Z,100.00
2023-01-06T01:01:41.913Z,100.00
2023-01-06T01:04:10.128Z,100.00
2023-01-06T01:06:39.568Z,100.00
2023-01-06T01:09:07.754Z,100.00
2023-01-06T01:11:54.969Z,100.00
2023-01-06T01:14:23.504Z,100.00
2023-01-06T01:16:51.010Z,100.00
2023-01-06T01:19:19.188Z,100.00
2023-01-06T01:21:48.139Z,100.00
2023-01-06T01:24:16.082Z,100.00
2023-01-06T01:26:43.709Z,100.00
2023-01-06T01:29:16.201Z,100.00
2023-01-06T01:31:44.019Z,100.00
2023-01-06T01:34:12.346Z,100.00
2023-01-06T01:36:41.000Z,100.00
2023-01-06T01:39:10.492Z,100.00
2023-01-06T01:41:38.929Z,100.00
2023-01-06T01:44:22.013Z,100.00
2023-01-06T01:46:50.921Z,100.00
2023-01-06T01:49:20.287Z,100.00
2023-01-06T01:52:13.647Z,100.00
2023-01-06T01:54:43.581Z,100.00
2023-01-06T01:57:13.157Z,100.00
2023-01-06T01:59:43.065Z,100.00
2023-01-06T02:02:12.981Z,100.00
2023-01-06T02:04:42.579Z,100.00
2023-01-06T02:07:12.033Z,100.00
2023-01-06T02:09:42.865Z,100.00
2023-01-06T02:12:14.663Z,100.00
2023-01-06T02:14:42.908Z,100.00
2023-01-06T02:17:21.331Z,100.00
2023-01-06T02:20:07.882Z,100.00
2023-01-06T02:22:46.327Z,100.00
2023-01-06T02:25:35.038Z,100.00
2023-01-06T02:28:17.838Z,100.00
2023-01-06T02:31:33.700Z,100.00
2023-01-06T02:34:08.033Z,100.00
2023-01-06T02:36:39.016Z,100.00
2023-01-06T02:39:16.066Z,100.00
2023-01-06T02:41:47.931Z,100.00
2023-01-06T02:44:21.153Z,100.00
2023-01-06T02:46:57.842Z,100.00
2023-01-06T02:49:27.627Z,100.00
2023-01-06T02:51:59.346Z,100.00
2023-01-06T02:54:32.912Z,100.00
2023-01-06T02:57:05.127Z,100.00
2023-01-06T02:59:39.932Z,100.00
2023-01-06T03:02:12.091Z,100.00
2023-01-06T03:04:42.556Z,100.00
2023-01-06T03:07:11.026Z,100.00
2023-01-06T03:09:40.423Z,100.00
2023-01-06T03:12:10.043Z,100.00
2023-01-06T03:14:41.016Z,100.00
2023-01-06T03:17:34.508Z,100.00
2023-01-06T03:20:03.779Z,100.00
2023-01-06T03:22:34.642Z,100.00
2023-01-06T03:25:03.966Z,100.00
2023-01-06T03:27:31.581Z,100.00
2023-01-06T03:30:02.924Z,100.00
2023-01-06T03:32:36.391Z,100.00
2023-01-06T03:35:12.456Z,100.00
2023-01-06T03:37:45.432Z,100.00
2023-01-06T03:40:16.850Z,100.00
2023-01-06T03:43:04.497Z,100.00
2023-01-06T03:45:40.063Z,100.00
2023-01-06T03:48:14.182Z,100.00
2023-01-06T03:50:46.946Z,100.00
2023-01-06T03:53:23.738Z,100.00
2023-01-06T03:55:54.926Z,100.00
2023-01-06T03:58:24.941Z,100.00
2023-01-06T04:00:53.587Z,100.00
2023-01-06T04:03:25.272Z,100.00
2023-01-06T04:05:56.903Z,100.00
2023-01-06T04:08:24.459Z,100.00
2023-01-06T04:10:52.563Z,100.00
2023-01-06T04:13:20.202Z,100.00
2023-01-06T04:15:48.899Z,100.00
2023-01-06T04:18:16.432Z,100.00
2023-01-06T04:20:46.100Z,100.00
2023-01-06T04:23:20.740Z,100.00
2023-01-06T04:25:51.935Z,100.00
2023-01-06T04:28:27.338Z,100.00
2023-01-06T04:30:59.154Z,100.00
2023-01-06T04:33:27.997Z,100.00
2023-01-06T04:36:05.969Z,100.00
2023-01-06T04:38:34.625Z,100.00
2023-01-06T04:41:02.509Z,100.00
2023-01-06T04:43:31.049Z,100.00
2023-01-06T04:45:59.589Z,100.00
2023-01-06T04:48:27.621Z,100.00
2023-01-06T04:51:02.504Z,100.00
2023-01-06T04:53:30.344Z,100.00
2023-01-06T04:56:02.801Z,100.00
2023-01-06T04:58:30.372Z,100.00
2023-01-06T05:01:00.442Z,100.00
2023-01-06T05:03:29.445Z,100.00
2023-01-06T05:05:57.922Z,100.00
2023-01-06T05:08:28.049Z,100.00
2023-01-06T05:10:59.896Z,100.00
2023-01-06T05:13:28.324Z,100.00
2023-01-06T05:15:56.923Z,100.00
2023-01-06T05:18:25.030Z,100.00
2023-01-06T05:21:18.157Z,100.00
2023-01-06T05:23:47.217Z,100.00
2023-01-06T05:29:09.623Z,100.00
2023-01-06T05:31:37.289Z,100.00
2023-01-06T05:34:05.940Z,100.00
2023-01-06T05:36:34.501Z,100.00
2023-01-06T05:39:04.083Z,100.00
2023-01-06T05:41:32.051Z,100.00
2023-01-06T05:43:59.954Z,100.00
2023-01-06T05:46:27.444Z,100.00
2023-01-06T05:48:55.333Z,100.00
2023-01-06T05:51:22.937Z,100.00
2023-01-06T05:53:51.047Z,100.00
2023-01-06T05:56:45.163Z,100.00
2023-01-06T05:59:13.382Z,100.00
2023-01-06T06:01:41.368Z,100.00
2023-01-06T06:04:09.136Z,100.00
2023-01-06T06:06:36.770Z,100.00
2023-01-06T06:09:05.775Z,100.00
2023-01-06T06:11:57.795Z,100.00
2023-01-06T06:14:27.992Z,100.00
2023-01-06T06:16:56.527Z,100.00
2023-01-06T06:19:24.316Z,100.00
2023-01-06T06:21:51.992Z,100.00
2023-01-06T06:24:19.469Z,100.00
2023-01-06T06:27:12.764Z,100.00
2023-01-06T06:29:41.723Z,100.00
2023-01-06T06:32:09.180Z,100.00
2023-01-06T06:34:40.286Z,100.00
2023-01-06T06:37:10.805Z,100.00
2023-01-06T06:39:41.217Z,100.00
2023-01-06T06:42:09.032Z,100.00
2023-01-06T06:44:37.199Z,100.00
2023-01-06T06:47:08.074Z,100.00
2023-01-06T06:49:35.914Z,100.00
2023-01-06T06:52:05.396Z,100.00
2023-01-06T06:54:35.177Z,100.00
2023-01-06T06:57:27.960Z,100.00
2023-01-06T06:59:59.935Z,100.00
2023-01-06T07:02:30.738Z,100.00
2023-01-06T07:04:58.596Z,100.00
2023-01-06T07:07:26.100Z,100.00
2023-01-06T07:09:54.301Z,100.00
2023-01-06T07:12:23.946Z,100.00
2023-01-06T07:14:51.446Z,100.00
2023-01-06T07:17:19.030Z,100.00
2023-01-06T07:19:48.856Z,100.00
2023-01-06T07:22:16.388Z,100.00
2023-01-06T07:24:45.234Z,100.00
2023-01-06T07:27:13.058Z,100.00
2023-01-06T07:29:40.527Z,100.00
2023-01-06T07:32:10.210Z,100.00
2023-01-06T07:34:38.063Z,100.00
2023-01-06T07:37:08.919Z,100.00
2023-01-06T07:39:36.455Z,100.00
2023-01-06T07:42:04.934Z,100.00
2023-01-06T07:44:57.799Z,100.00
2023-01-06T07:47:27.957Z,100.00
2023-01-06T07:49:55.468Z,100.00
2023-01-06T07:52:24.691Z,100.00
2023-01-06T07:54:52.232Z,100.00
2023-01-06T07:57:19.710Z,100.00
2023-01-06T07:59:47.328Z,100.00
2023-01-06T08:02:14.877Z,100.00
2023-01-06T08:04:42.373Z,100.00
2023-01-06T08:07:10.155Z,100.00
2023-01-06T08:09:39.917Z,100.00
2023-01-06T08:12:12.013Z,100.00
2023-01-06T08:14:39.518Z,100.00
2023-01-06T08:17:07.357Z,100.00
2023-01-06T08:19:34.911Z,100.00
2023-01-06T08:22:03.389Z,100.00
2023-01-06T08:24:32.637Z,100.00
2023-01-06T08:27:01.723Z,100.00
2023-01-06T08:29:29.254Z,100.00
2023-01-06T08:32:10.004Z,100.00
2023-01-06T08:34:38.491Z,100.00
2023-01-06T08:37:06.231Z,100.00
2023-01-06T08:39:33.778Z,100.00
2023-01-06T08:42:26.725Z,100.00
2023-01-06T08:44:55.608Z,100.00
2023-01-06T08:47:23.352Z,100.00
2023-01-06T08:49:50.845Z,100.00
2023-01-06T08:52:18.373Z,100.00
2023-01-06T08:54:45.859Z,100.00
2023-01-06T08:57:15.740Z,100.00
2023-01-06T08:59:43.305Z,100.00
2023-01-06T09:02:12.410Z,100.00
2023-01-06T09:04:41.366Z,100.00
2023-01-06T09:07:08.922Z,100.00
2023-01-06T09:09:38.956Z,100.00
2023-01-06T09:12:08.140Z,100.00
2023-01-06T09:14:35.650Z,100.00
2023-01-06T09:17:03.962Z,100.00
2023-01-06T09:19:33.732Z,100.00
2023-01-06T09:22:01.283Z,100.00
2023-01-06T09:24:28.775Z,100.00
2023-01-06T09:26:56.360Z,100.00
2023-01-06T09:29:23.887Z,100.00
2023-01-06T09:31:55.054Z,100.00
2023-01-06T09:34:22.569Z,100.00
2023-01-06T09:36:52.103Z,100.00
2023-01-06T09:39:19.739Z,100.00
2023-01-06T09:41:55.788Z,100.00
2023-01-06T09:44:26.418Z,100.00
2023-01-06T09:46:54.214Z,100.00
2023-01-06T09:49:25.815Z,100.00
2023-01-06T09:54:54.651Z,100.00
2023-01-06T09:57:23.449Z,100.00
2023-01-06T09:59:53.946Z,100.00
2023-01-06T10:02:24.029Z,100.00
2023-01-06T10:04:51.943Z,100.00
2023-01-06T10:07:25.275Z,100.00
2023-01-06T10:12:58.968Z,100.00
2023-01-06T10:15:33.419Z,100.00
2023-01-06T10:18:07.207Z,100.00
2023-01-06T10:20:47.712Z,100.00
2023-01-06T10:23:25.231Z,100.00
2023-01-06T10:25:54.960Z,100.00
2023-01-06T10:28:29.462Z,100.00
2023-01-06T10:31:00.987Z,100.00
2023-01-06T10:33:34.508Z,100.00
2023-01-06T10:36:02.087Z,100.00
2023-01-06T10:38:34.901Z,100.00
2023-01-06T10:41:12.948Z,100.00
2023-01-06T10:43:41.288Z,100.00
2023-01-06T10:46:09.726Z,100.00
2023-01-06T10:48:39.394Z,100.00
2023-01-06T10:51:21.058Z,100.00
2023-01-06T10:53:53.651Z,100.00
2023-01-06T10:56:21.273Z,100.00
2023-01-06T10:58:50.948Z,100.00
2023-01-06T11:01:24.275Z,100.00
2023-01-06T11:04:06.626Z,100.00
2023-01-06T11:06:35.093Z,100.00
2023-01-06T11:09:09.844Z,100.00
2023-01-06T11:11:46.816Z,100.00
2023-01-06T11:14:39.982Z,100.00
2023-01-06T11:17:10.568Z,100.00
2023-01-06T11:19:40.183Z,100.00
2023-01-06T11:22:27.696Z,100.00
2023-01-06T11:24:59.935Z,100.00
2023-01-06T11:27:28.298Z,100.00
2023-01-06T11:29:57.955Z,100.00
2023-01-06T11:32:27.646Z,100.00
2023-01-06T11:34:56.272Z,100.00
2023-01-06T11:37:31.367Z,100.00
2023-01-06T11:40:10.316Z,100.00
2023-01-06T11:45:07.705Z,100.00
2023-01-06T11:47:35.348Z,98.98
2023-01-06T11:50:05.118Z,98.93
2023-01-06T11:52:34.073Z,99.30
2023-01-06T11:55:15.060Z,98.97
2023-01-06T11:57:43.288Z,98.45
2023-01-06T12:00:23.968Z,97.04
2023-01-06T12:02:54.090Z,97.87
2023-01-06T12:05:27.044Z,98.23
2023-01-06T12:07:57.957Z,98.69
2023-01-06T12:10:31.602Z,98.44
2023-01-06T12:13:00.964Z,97.60
2023-01-06T12:15:30.338Z,97.19
2023-01-06T12:18:02.470Z,97.30
2023-01-06T12:20:32.089Z,97.45
2023-01-06T12:23:02.958Z,98.15
2023-01-06T12:25:34.095Z,98.38
2023-01-06T12:28:05.944Z,98.86
2023-01-06T12:30:35.526Z,97.41
2023-01-06T12:33:06.970Z,97.89
2023-01-06T12:35:37.522Z,97.39
2023-01-06T12:38:10.965Z,95.42
2023-01-06T12:40:43.657Z,96.70
2023-01-06T12:43:16.041Z,96.42
2023-01-06T12:45:56.679Z,95.38
2023-01-06T12:48:27.960Z,95.34
2023-01-06T12:51:23.906Z,95.82
2023-01-06T12:53:56.363Z,95.98
2023-01-06T12:56:41.085Z,96.88
2023-01-06T12:59:13.251Z,97.07
2023-01-06T13:02:13.333Z,97.98
2023-01-06T13:04:53.436Z,96.57
2023-01-06T13:07:30.477Z,95.09
2023-01-06T13:10:00.418Z,94.64
2023-01-06T13:12:36.503Z,94.72
2023-01-06T13:15:07.159Z,94.34
2023-01-06T13:17:37.779Z,94.95
2023-01-06T13:20:08.520Z,95.42
2023-01-06T13:22:43.787Z,94.90
2023-01-06T13:25:28.589Z,95.73
2023-01-06T13:28:02.431Z,95.77
2023-01-06T13:30:40.010Z,94.75
2023-01-06T13:33:18.195Z,95.03
2023-01-06T13:36:00.985Z,93.86
2023-01-06T13:38:43.123Z,94.16
2023-01-06T13:41:15.816Z,94.58
2023-01-06T13:43:46.297Z,94.92
2023-01-06T13:46:16.428Z,95.45
2023-01-06T13:48:45.110Z,95.54
2023-01-06T13:51:13.969Z,95.77
2023-01-06T13:53:42.723Z,95.58
2023-01-06T13:56:23.985Z,96.12
2023-01-06T13:59:13.909Z,96.32
2023-01-06T14:01:43.505Z,96.49
2023-01-06T14:04:29.819Z,97.08
2023-01-06T14:06:57.967Z,97.44
2023-01-06T14:09:25.703Z,97.56
2023-01-06T14:11:54.139Z,98.19
2023-01-06T14:14:26.965Z,98.20
2023-01-06T14:16:57.303Z,98.49
2023-01-06T14:19:27.933Z,98.25
2023-01-06T14:21:57.082Z,98.24
2023-01-06T14:24:28.366Z,97.04
2023-01-06T14:26:58.355Z,96.80
2023-01-06T14:29:44.911Z,96.73
2023-01-06T14:32:34.143Z,96.42
2023-01-06T14:35:03.351Z,95.45
2023-01-06T14:37:43.622Z,95.07
2023-01-06T14:40:19.214Z,95.21
2023-01-06T14:42:47.343Z,93.65
2023-01-06T14:45:18.240Z,92.24
2023-01-06T14:47:48.729Z,92.62
2023-01-06T14:50:18.705Z,93.46
2023-01-06T14:52:49.821Z,94.31
2023-01-06T14:55:19.021Z,94.55
2023-01-06T14:57:50.522Z,94.74
2023-01-06T15:00:20.612Z,95.10
2023-01-06T15:05:43.195Z,93.10
2023-01-06T15:08:16.976Z,93.49
2023-01-06T15:10:45.709Z,92.82
2023-01-06T15:13:21.982Z,93.36
2023-01-06T15:15:53.434Z,93.74
2023-01-06T15:18:22.975Z,94.00
2023-01-06T15:20:50.652Z,93.99
2023-01-06T15:23:19.813Z,94.01
2023-01-06T15:25:48.932Z,94.58
2023-01-06T15:28:24.740Z,94.84
2023-01-06T15:30:52.361Z,95.21
2023-01-06T15:33:21.131Z,96.12
2023-01-06T15:35:50.940Z,95.91
2023-01-06T15:38:24.657Z,96.29
2023-01-06T15:40:52.726Z,95.98
2023-01-06T15:43:27.142Z,96.26
2023-01-06T15:45:59.001Z,96.72
2023-01-06T15:48:29.095Z,97.21
2023-01-06T15:50:59.771Z,97.58
2023-01-06T15:53:32.455Z,97.74
2023-01-06T15:56:02.213Z,97.76
2023-01-06T15:58:31.425Z,97.92
2023-01-06T16:01:00.969Z,97.80
2023-01-06T16:03:30.100Z,98.23
2023-01-06T16:06:11.141Z,98.46
2023-01-06T16:08:41.131Z,98.79
2023-01-06T16:11:40.659Z,98.97
2023-01-06T16:14:23.047Z,99.49
2023-01-06T16:16:52.011Z,100.00
2023-01-06T16:19:21.283Z,100.00
2023-01-06T16:21:53.375Z,100.00
2023-01-06T16:24:23.078Z,100.00
2023-01-06T16:26:52.590Z,100.00
2023-01-06T16:29:26.198Z,100.00
2023-01-06T16:31:55.350Z,100.00
2023-01-06T16:34:28.380Z,100.00
2023-01-06T16:36:58.384Z,100.00
2023-01-06T16:39:26.359Z,100.00
2023-01-06T16:42:32.711Z,100.00
2023-01-06T16:45:01.248Z,100.00
2023-01-06T16:47:29.150Z,100.00
2023-01-06T16:49:57.695Z,100.00
2023-01-06T16:52:28.997Z,100.00
2023-01-06T16:54:58.292Z,100.00
2023-01-06T16:57:26.143Z,100.00
2023-01-06T16:59:53.828Z,100.00
2023-01-06T17:02:21.440Z,100.00
2023-01-06T17:04:49.318Z,100.00
2023-01-06T17:07:17.133Z,100.00
2023-01-06T17:09:46.966Z,100.00
2023-01-06T17:12:36.158Z,100.00
2023-01-06T17:15:05.771Z,100.00
2023-01-06T17:17:34.010Z,100.00
2023-01-06T17:20:02.380Z,100.00
2023-01-06T17:22:31.101Z,100.00
2023-01-06T17:25:02.831Z,100.00
2023-01-06T17:27:31.001Z,100.00
2023-01-06T17:30:01.245Z,100.00
2023-01-06T17:32:30.920Z,100.00
2023-01-06T17:34:58.644Z,100.00
2023-01-06T17:37:30.039Z,100.00
2023-01-06T17:39:58.001Z,100.00
2023-01-06T17:42:30.581Z,100.00
2023-01-06T17:44:59.507Z,100.00
2023-01-06T17:47:29.048Z,100.00
2023-01-06T17:49:57.621Z,100.00
2023-01-06T17:52:30.527Z,100.00
2023-01-06T17:55:20.005Z,100.00
2023-01-06T17:57:50.006Z,100.00
2023-01-06T18:00:23.288Z,100.00
2023-01-06T18:02:54.188Z,100.00
2023-01-06T18:05:41.409Z,100.00
2023-01-06T18:08:13.259Z,100.00
2023-01-06T18:10:43.231Z,100.00
2023-01-06T18:13:14.991Z,100.00
2023-01-06T18:15:42.904Z,100.00
2023-01-06T18:18:17.284Z,100.00
2023-01-06T18:20:46.669Z,100.00
2023-01-06T18:23:19.580Z,100.00
2023-01-06T18:25:47.128Z,100.00
2023-01-06T18:28:18.389Z,100.00
2023-01-06T18:30:46.719Z,100.00
2023-01-06T18:33:18.122Z,100.00
2023-01-06T18:35:46.804Z,100.00
2023-01-06T18:38:14.362Z,100.00
2023-01-06T18:40:42.552Z,100.00
2023-01-06T18:43:20.265Z,100.00
2023-01-06T18:45:51.515Z,100.00
2023-01-06T18:48:24.922Z,100.00
2023-01-06T18:50:53.120Z,100.00
2023-01-06T18:53:26.074Z,100.00
2023-01-06T18:55:55.114Z,100.00
2023-01-06T18:58:33.323Z,100.00
2023-01-06T19:01:02.128Z,100.00
2023-01-06T19:03:31.283Z,100.00
2023-01-06T19:06:07.538Z,100.00
2023-01-06T19:08:38.142Z,100.00
2023-01-06T19:11:12.594Z,100.00
2023-01-06T19:13:41.487Z,100.00
2023-01-06T19:16:23.303Z,100.00
2023-01-06T19:18:50.880Z,100.00
2023-01-06T19:21:18.521Z,100.00
2023-01-06T19:23:46.132Z,100.00
2023-01-06T19:26:19.844Z,100.00
2023-01-06T19:28:53.117Z,100.00
2023-01-06T19:31:23.291Z,100.00
2023-01-06T19:33:53.883Z,100.00
2023-01-06T19:36:38.612Z,100.00
2023-01-06T19:39:16.299Z,100.00
2023-01-06T19:41:44.365Z,100.00
2023-01-06T19:44:14.289Z,100.00
2023-01-06T19:46:42.939Z,100.00
2023-01-06T19:49:20.558Z,100.00
2023-01-06T19:51:49.336Z,100.00
2023-01-06T19:54:27.400Z,100.00
2023-01-06T19:56:55.647Z,100.00
2023-01-06T19:59:26.434Z,100.00
2023-01-06T20:01:58.280Z,100.00
2023-01-06T20:04:27.110Z,100.00
2023-01-06T20:06:55.993Z,100.00
2023-01-06T20:09:23.577Z,100.00
2023-01-06T20:11:51.742Z,100.00
2023-01-06T20:14:19.823Z,100.00
2023-01-06T20:16:49.133Z,100.00
2023-01-06T20:19:17.530Z,100.00
2023-01-06T20:21:46.030Z,100.00
2023-01-06T20:24:14.248Z,100.00
2023-01-06T20:26:41.842Z,100.00
2023-01-06T20:29:09.410Z,100.00
2023-01-06T20:31:36.979Z,100.00
2023-01-06T20:34:05.898Z,100.00
2023-01-06T20:36:33.445Z,100.00
2023-01-06T20:39:02.334Z,100.00
2023-01-06T20:41:30.004Z,100.00
2023-01-06T20:43:58.360Z,100.00
2023-01-06T20:46:26.352Z,100.00
2023-01-06T20:48:53.924Z,100.00
2023-01-06T20:51:22.841Z,100.00
2023-01-06T20:53:50.388Z,100.00
2023-01-06T20:56:18.793Z,100.00
2023-01-06T20:58:47.302Z,100.00
2023-01-06T21:01:14.857Z,100.00
2023-01-06T21:03:42.477Z,100.00
2023-01-06T21:06:10.276Z,100.00
2023-01-06T21:08:39.119Z,100.00
2023-01-06T21:11:06.756Z,100.00
2023-01-06T21:13:34.237Z,100.00
2023-01-06T21:16:02.994Z,100.00
2023-01-06T21:18:31.439Z,100.00
2023-01-06T21:20:59.081Z,100.00
2023-01-06T21:23:27.865Z,100.00
2023-01-06T21:25:56.771Z,100.00
2023-01-06T21:28:24.332Z,100.00
2023-01-06T21:30:51.878Z,100.00
2023-01-06T21:33:21.570Z,100.00
2023-01-06T21:35:49.377Z,100.00
2023-01-06T21:38:17.225Z,100.00
2023-01-06T21:40:44.808Z,100.00
2023-01-06T21:43:12.736Z,100.00
2023-01-06T21:45:40.959Z,100.00
2023-01-06T21:48:09.041Z,100.00
2023-01-06T21:50:38.184Z,100.00
2023-01-06T21:53:07.321Z,100.00
2023-01-06T21:55:34.876Z,100.00
2023-01-06T21:58:02.543Z,100.00
2023-01-06T22:00:31.495Z,100.00
2023-01-06T22:02:59.397Z,100.00
2023-01-06T22:05:27.657Z,100.00
2023-01-06T22:07:55.209Z,100.00
2023-01-06T22:10:23.903Z,100.00
2023-01-06T22:12:52.711Z,100.00
2023-01-06T22:15:20.969Z,100.00
2023-01-06T22:17:50.632Z,100.00
2023-01-06T22:20:18.514Z,100.00
2023-01-06T22:22:47.115Z,100.00
2023-01-06T22:25:14.897Z,100.00
2023-01-06T22:27:42.463Z,100.00
2023-01-06T22:30:10.865Z,100.00
2023-01-06T22:32:44.676Z,100.00
2023-01-06T22:35:14.144Z,100.00
2023-01-06T22:37:41.680Z,100.00
2023-01-06T22:40:10.205Z,100.00
2023-01-06T22:42:41.505Z,100.00
2023-01-06T22:45:13.026Z,100.00
2023-01-06T22:47:40.591Z,100.00
2023-01-06T22:50:08.913Z,100.00
2023-01-06T22:52:37.799Z,100.00
2023-01-06T22:55:05.797Z,100.00
2023-01-06T22:57:33.369Z,100.00
2023-01-06T23:00:00.927Z,100.00
2023-01-06T23:02:29.484Z,100.00
2023-01-06T23:04:58.131Z,100.00
2023-01-06T23:07:25.659Z,100.00
2023-01-06T23:09:54.850Z,100.00
2023-01-06T23:12:22.411Z,100.00
2023-01-06T23:14:50.032Z,100.00
2023-01-06T23:17:17.528Z,100.00
2023-01-06T23:19:45.061Z,100.00
2023-01-06T23:22:12.773Z,100.00
2023-01-06T23:24:40.250Z,100.00
2023-01-06T23:27:11.101Z,100.00
2023-01-06T23:29:38.669Z,100.00
2023-01-06T23:32:06.200Z,100.00
2023-01-06T23:34:33.729Z,100.00
2023-01-06T23:37:01.448Z,100.00
2023-01-06T23:39:29.000Z,100.00
2023-01-06T23:41:56.541Z,100.00
2023-01-06T23:44:25.482Z,100.00
2023-01-06T23:46:52.968Z,100.00
2023-01-06T23:49:20.469Z,100.00
2023-01-06T23:51:48.031Z,100.00
2023-01-06T23:54:15.760Z,100.00
2023-01-06T23:56:43.994Z,100.00
2023-01-06T23:59:12.772Z,100.00
